Time;durP1;ratioP1;P1;durP2;ratioP2;P2;SDS_P1;SDS_P2;PMS_P1;PMS_P2;Temp;Humidity;BMP_temperature;BMP_pressure;BME280_temperature;BME280_humidity;BME280_pressure;Samples;Min_cycle;Max_cycle;Signal;HPM_P1;HPM_P2
2023/07/04 00:01:00;;;;;;;11.95;1.90;;;;;;;19.37;63.41;101122.00;5011745;28;20396;-50
2023/07/04 00:03:27;;;;;;;7.22;1.88;;;;;;;18.92;64.41;101134.25;5012493;28;20116;-47
2023/07/04 00:05:54;;;;;;;6.25;1.85;;;;;;;18.97;64.26;101150.91;5013209;28;20492;-48
2023/07/04 00:08:21;;;;;;;5.90;2.05;;;;;;;18.25;67.32;101149.31;5014338;28;20492;-44
2023/07/04 00:10:47;;;;;;;8.95;2.05;;;;;;;18.49;66.58;101150.75;5015037;28;20065;-42
2023/07/04 00:13:13;;;;;;;6.30;1.90;;;;;;;18.32;67.24;101142.19;5012881;28;20030;-44
2023/07/04 00:15:44;;;;;;;7.65;2.03;;;;;;;18.36;67.23;101138.63;5012019;28;20049;-44
2023/07/04 00:18:09;;;;;;;5.28;1.95;;;;;;;18.30;67.81;101146.63;5010398;28;20533;-42
2023/07/04 00:20:37;;;;;;;9.35;2.30;;;;;;;18.28;67.99;101142.28;5013722;28;20037;-43
2023/07/04 00:23:02;;;;;;;7.55;2.00;;;;;;;18.27;68.13;101136.13;5013504;28;20516;-44
2023/07/04 00:25:28;;;;;;;6.22;1.85;;;;;;;18.20;68.27;101140.59;5011751;28;20065;-45
2023/07/04 00:27:53;;;;;;;5.30;1.80;;;;;;;18.15;68.75;101144.22;5011800;28;20057;-47
2023/07/04 00:30:20;;;;;;;5.85;1.85;;;;;;;18.25;68.73;101146.69;5012235;28;20095;-46
2023/07/04 00:32:45;;;;;;;9.25;1.75;;;;;;;18.29;67.92;101144.91;5011812;28;20042;-44
2023/07/04 00:35:11;;;;;;;5.93;1.70;;;;;;;18.14;68.62;101145.09;5012254;28;20400;-46
2023/07/04 00:37:36;;;;;;;5.85;1.77;;;;;;;18.17;68.44;101142.44;5011534;28;20893;-47
2023/07/04 00:40:05;;;;;;;7.53;1.70;;;;;;;18.14;68.23;101151.25;5010998;28;20040;-47
2023/07/04 00:42:35;;;;;;;6.05;1.63;;;;;;;17.97;69.05;101147.09;5012545;28;20042;-44
2023/07/04 00:45:09;;;;;;;6.00;1.63;;;;;;;17.95;68.79;101152.38;5012547;28;20084;-48
2023/07/04 00:47:43;;;;;;;9.25;1.92;;;;;;;17.84;69.22;101156.91;5011018;28;20057;-50
2023/07/04 00:50:10;;;;;;;8.48;1.70;;;;;;;17.62;70.78;101145.75;5011608;28;20031;-44
2023/07/04 00:52:37;;;;;;;5.80;1.88;;;;;;;17.94;69.36;101147.09;5010194;28;20048;-45
2023/07/04 00:55:08;;;;;;;7.40;1.70;;;;;;;18.05;69.31;101146.06;5011934;28;20084;-44
2023/07/04 00:57:33;;;;;;;7.43;1.73;;;;;;;18.05;69.08;101140.78;5011002;28;20045;-49
2023/07/04 01:00:09;;;;;;;5.95;1.70;;;;;;;18.19;68.51;101138.84;5011624;28;20034;-45
2023/07/04 01:02:35;;;;;;;6.38;1.70;;;;;;;18.17;68.13;101135.38;5011369;28;20508;-43
2023/07/04 01:05:05;;;;;;;6.78;1.63;;;;;;;18.17;68.79;101132.75;5011377;28;20026;-43
2023/07/04 01:07:46;;;;;;;4.65;1.70;;;;;;;18.14;68.75;101123.97;5008613;28;20115;-44
2023/07/04 01:10:21;;;;;;;6.13;1.70;;;;;;;18.23;68.40;101129.16;5011455;28;20037;-44
2023/07/04 01:12:48;;;;;;;8.57;1.60;;;;;;;17.99;69.32;101134.75;5011189;28;20522;-43
2023/07/04 01:15:14;;;;;;;7.18;1.73;;;;;;;18.11;68.42;101130.16;5011680;28;20312;-43
2023/07/04 01:17:42;;;;;;;3.63;1.50;;;;;;;18.16;68.18;101130.13;5011624;28;20123;-43
2023/07/04 01:20:10;;;;;;;6.45;1.50;;;;;;;17.97;68.31;101131.25;5013571;28;20042;-43
2023/07/04 01:23:16;;;;;;;5.60;1.40;;;;;;;17.73;68.75;101133.31;5013020;28;20049;-43
2023/07/04 01:26:10;;;;;;;5.28;1.17;;;;;;;17.48;68.03;101123.03;5013743;28;20062;-45
2023/07/04 01:28:36;;;;;;;4.80;1.20;;;;;;;17.64;66.68;101121.97;5015345;28;20129;-46
2023/07/04 01:31:01;;;;;;;3.10;1.23;;;;;;;17.81;65.75;101120.88;5014095;28;20113;-44
2023/07/04 01:33:26;;;;;;;4.03;1.30;;;;;;;17.70;66.17;101128.06;5011147;28;20070;-46
2023/07/04 01:35:52;;;;;;;3.63;1.10;;;;;;;17.91;65.45;101129.56;5012738;28;20054;-45
2023/07/04 01:38:17;;;;;;;4.72;1.30;;;;;;;17.95;65.25;101133.91;5010907;28;20038;-45
2023/07/04 01:40:43;;;;;;;3.47;1.17;;;;;;;17.97;65.04;101131.25;5012833;28;20030;-42
2023/07/04 01:43:08;;;;;;;3.53;1.30;;;;;;;17.97;64.33;101131.25;5015136;28;20032;-44
2023/07/04 01:45:33;;;;;;;8.20;1.58;;;;;;;17.90;63.69;101134.84;5011416;28;20046;-47
2023/07/04 01:47:59;;;;;;;6.13;1.30;;;;;;;17.90;63.07;101133.09;5010882;28;20026;-43
2023/07/04 01:50:25;;;;;;;8.57;1.42;;;;;;;17.74;63.70;101128.91;5009234;28;20034;-43
2023/07/04 01:52:50;;;;;;;4.82;1.05;;;;;;;17.94;62.79;101129.50;5010683;28;20507;-47
2023/07/04 01:55:16;;;;;;;6.70;1.35;;;;;;;18.16;62.11;101135.41;5010909;28;20877;-47
2023/07/04 01:57:42;;;;;;;5.10;1.40;;;;;;;18.10;62.45;101139.00;5009546;28;20042;-45
2023/07/04 02:00:09;;;;;;;4.13;1.27;;;;;;;17.84;63.46;101130.53;5010572;28;20079;-44
2023/07/04 02:02:39;;;;;;;7.45;1.38;;;;;;;17.85;62.17;101119.09;5010354;28;20504;-49
2023/07/04 02:05:05;;;;;;;6.30;1.17;;;;;;;17.27;61.97;101121.47;5010526;28;20491;-49
2023/07/04 02:07:30;;;;;;;6.82;1.27;;;;;;;17.66;61.06;101123.72;5009984;28;20034;-48
2023/07/04 02:09:55;;;;;;;4.85;1.30;;;;;;;18.16;60.48;101114.28;5010864;28;20099;-42
2023/07/04 02:12:21;;;;;;;5.70;1.30;;;;;;;18.20;59.17;101115.97;5012151;28;20030;-46
2023/07/04 02:14:46;;;;;;;6.22;1.40;;;;;;;17.99;60.46;101118.94;5011877;28;20192;-41
2023/07/04 02:17:11;;;;;;;4.30;1.20;;;;;;;18.14;59.98;101129.25;5011895;28;20041;-43
2023/07/04 02:19:37;;;;;;;5.32;1.55;;;;;;;18.10;59.57;101114.38;5010864;28;20038;-48
2023/07/04 02:22:02;;;;;;;8.70;1.40;;;;;;;18.17;60.13;101123.97;5010947;28;20037;-45
2023/07/04 02:24:28;;;;;;;7.53;1.50;;;;;;;18.18;60.90;101123.91;5010617;28;20416;-46
2023/07/04 02:26:53;;;;;;;4.97;1.42;;;;;;;17.96;60.43;101122.47;5011054;28;20041;-44
2023/07/04 02:29:19;;;;;;;5.88;1.40;;;;;;;18.09;60.00;101124.06;5010625;28;20038;-46
2023/07/04 02:31:44;;;;;;;4.80;1.40;;;;;;;18.17;60.92;101122.19;5009505;28;20096;-44
2023/07/04 02:34:10;;;;;;;5.90;1.63;;;;;;;17.96;59.35;101124.22;5010465;28;20038;-46
2023/07/04 02:36:35;;;;;;;5.93;1.70;;;;;;;18.32;60.22;101129.00;5009082;28;20037;-44
2023/07/04 02:39:00;;;;;;;8.40;1.70;;;;;;;18.03;59.57;101123.25;5009734;28;20038;-44
2023/07/04 02:41:26;;;;;;;5.53;1.55;;;;;;;18.29;60.22;101136.09;5009750;28;20121;-48
2023/07/04 02:43:52;;;;;;;4.32;1.25;;;;;;;18.55;58.82;101129.56;5009074;28;20112;-43
2023/07/04 02:46:17;;;;;;;7.30;1.50;;;;;;;18.60;58.76;101132.16;5010306;28;20064;-44
2023/07/04 02:48:42;;;;;;;5.20;1.42;;;;;;;18.59;58.88;101139.22;5009320;28;20061;-45
2023/07/04 02:51:08;;;;;;;5.18;1.55;;;;;;;18.42;60.27;101143.81;5010153;28;20026;-45
2023/07/04 02:53:33;;;;;;;7.40;1.58;;;;;;;18.27;60.57;101137.88;5009573;28;20500;-46
2023/07/04 02:55:58;;;;;;;7.28;1.95;;;;;;;18.34;59.69;101136.91;5009794;28;20180;-50
2023/07/04 02:58:24;;;;;;;7.75;2.00;;;;;;;18.14;59.76;101135.41;5008599;28;20542;-45
2023/07/04 03:00:50;;;;;;;7.60;1.70;;;;;;;18.15;60.06;101133.66;5009688;28;20084;-45
2023/07/04 03:03:16;;;;;;;8.43;1.85;;;;;;;18.05;61.30;101140.78;5009864;28;20551;-44
2023/07/04 03:05:42;;;;;;;9.13;2.20;;;;;;;18.14;60.45;101140.69;5009314;28;20056;-45
2023/07/04 03:08:08;;;;;;;8.95;1.80;;;;;;;18.07;60.65;101138.16;5009400;28;20026;-44
2023/07/04 03:10:34;;;;;;;7.50;1.98;;;;;;;18.20;59.49;101135.34;5009565;28;20053;-50
2023/07/04 03:12:59;;;;;;;9.45;1.83;;;;;;;17.99;60.43;101130.31;5010336;28;20041;-47
2023/07/04 03:15:25;;;;;;;6.07;1.60;;;;;;;17.94;58.22;101136.56;5009334;28;20516;-45
2023/07/04 03:17:51;;;;;;;7.13;1.80;;;;;;;18.11;56.66;101130.16;5008346;28;20488;-44
2023/07/04 03:20:16;;;;;;;6.38;1.63;;;;;;;18.07;57.54;101128.47;5009956;28;20041;-43
2023/07/04 03:22:42;;;;;;;7.38;1.67;;;;;;;17.89;58.91;101131.34;5009344;28;20034;-49
2023/07/04 03:25:09;;;;;;;7.95;1.95;;;;;;;18.03;56.56;101129.41;5010083;28;20630;-48
2023/07/04 03:27:36;;;;;;;12.98;1.90;;;;;;;17.79;56.90;101135.88;5008925;28;20116;-43
2023/07/04 03:30:03;;;;;;;7.47;1.83;;;;;;;18.20;55.84;101142.38;5010138;28;20033;-50
2023/07/04 03:32:29;;;;;;;8.32;1.90;;;;;;;17.76;57.05;101142.94;5009614;28;20093;-44
2023/07/04 03:35:00;;;;;;;6.80;1.80;;;;;;;18.16;55.90;101144.19;5010487;28;20038;-49
2023/07/04 03:37:30;;;;;;;5.32;1.70;;;;;;;18.20;55.37;101134.47;5009227;28;20504;-44
2023/07/04 03:39:56;;;;;;;8.38;1.63;;;;;;;18.01;56.57;101139.09;5010215;28;20065;-41
2023/07/04 03:42:22;;;;;;;4.53;1.45;;;;;;;18.19;57.00;101144.13;5010164;28;20523;-49
2023/07/04 03:44:47;;;;;;;6.53;1.60;;;;;;;18.21;55.73;101144.13;5010734;28;20037;-47
2023/07/04 03:47:12;;;;;;;7.55;1.83;;;;;;;18.40;56.67;101142.09;5012843;28;20298;-43
2023/07/04 03:49:38;;;;;;;7.80;1.95;;;;;;;18.37;56.15;101137.72;5013140;28;20030;-43
2023/07/04 03:52:03;;;;;;;5.03;1.83;;;;;;;18.51;55.36;101135.75;5014197;28;20504;-48
2023/07/04 03:54:29;;;;;;;9.30;1.90;;;;;;;18.59;55.86;101135.69;5013641;28;20038;-41
2023/07/04 03:56:54;;;;;;;8.45;1.95;;;;;;;18.66;55.27;101140.00;5014456;28;20427;-44
2023/07/04 03:59:20;;;;;;;10.68;1.75;;;;;;;18.73;55.29;101144.25;5014835;28;20066;-44
2023/07/04 04:01:45;;;;;;;6.68;1.63;;;;;;;18.73;55.52;101141.59;5013917;28;20057;-42
2023/07/04 04:04:11;;;;;;;6.15;1.70;;;;;;;18.75;56.22;101138.94;5015247;28;20057;-43
2023/07/04 04:06:36;;;;;;;7.82;1.65;;;;;;;18.72;56.12;101139.00;5015383;28;20096;-42
2023/07/04 04:09:02;;;;;;;7.95;1.92;;;;;;;18.79;56.02;101143.28;5015357;28;20037;-44
2023/07/04 04:11:28;;;;;;;12.23;1.85;;;;;;;18.57;56.08;101138.34;5014836;28;20033;-46
2023/07/04 04:13:53;;;;;;;7.72;1.90;;;;;;;18.56;56.96;101146.28;5013385;28;20041;-45
2023/07/04 04:16:21;;;;;;;8.85;2.20;;;;;;;18.44;56.93;101143.78;5015001;28;20038;-44
2023/07/04 04:18:46;;;;;;;12.85;1.88;;;;;;;18.25;57.12;101144.06;5014366;28;20030;-49
2023/07/04 04:21:12;;;;;;;8.68;1.83;;;;;;;18.81;55.69;101144.13;5013534;28;20061;-43
2023/07/04 04:23:37;;;;;;;8.15;1.77;;;;;;;18.68;57.23;101148.75;5011868;28;20042;-45
2023/07/04 04:26:03;;;;;;;8.60;2.10;;;;;;;18.69;56.25;101144.34;5012484;28;20034;-50
2023/07/04 04:28:29;;;;;;;10.38;2.30;;;;;;;19.12;55.25;101140.09;5011418;28;20040;-49
2023/07/04 04:30:54;;;;;;;7.47;1.80;;;;;;;19.28;55.05;101144.19;5012719;28;20034;-44
2023/07/04 04:33:20;;;;;;;10.43;2.10;;;;;;;19.29;55.08;101153.88;5013605;28;20439;-46
2023/07/04 04:35:45;;;;;;;7.13;2.08;;;;;;;19.37;55.15;101153.75;5013195;28;20087;-46
2023/07/04 04:38:11;;;;;;;8.38;2.00;;;;;;;19.23;56.57;101156.63;5013065;28;20034;-42
2023/07/04 04:40:37;;;;;;;6.60;1.90;;;;;;;19.37;56.17;101156.38;5013005;28;20137;-44
2023/07/04 04:43:02;;;;;;;7.70;1.90;;;;;;;19.06;55.26;101153.41;5013054;28;20029;-44
2023/07/04 04:45:28;;;;;;;8.98;2.03;;;;;;;19.38;55.00;101151.06;5012421;28;20033;-47
2023/07/04 04:47:54;;;;;;;8.75;2.10;;;;;;;19.58;54.92;101156.00;5012699;28;20068;-46
2023/07/04 04:50:24;;;;;;;6.63;1.80;;;;;;;19.72;54.92;101153.97;5013295;28;20057;-42
2023/07/04 04:52:50;;;;;;;9.18;2.03;;;;;;;19.42;56.02;101154.53;5012649;28;20088;-42
2023/07/04 04:55:16;;;;;;;6.60;1.90;;;;;;;19.41;56.60;101161.59;5012886;28;20526;-44
2023/07/04 04:57:42;;;;;;;8.05;1.88;;;;;;;19.62;55.88;101157.72;5011216;28;20037;-44
2023/07/04 05:00:09;;;;;;;8.52;1.80;;;;;;;19.75;54.96;101153.06;5011920;28;20122;-43
2023/07/04 05:02:35;;;;;;;8.10;2.00;;;;;;;19.68;54.66;101154.06;5012067;28;20034;-45
2023/07/04 05:05:01;;;;;;;9.23;2.15;;;;;;;19.47;54.18;101152.69;5010983;28;20030;-46
2023/07/04 05:07:28;;;;;;;7.68;1.90;;;;;;;19.71;53.77;101162.81;5008876;28;20518;-44
2023/07/04 05:09:54;;;;;;;6.75;2.20;;;;;;;20.11;52.66;101156.72;5011404;28;20054;-45
2023/07/04 05:12:20;;;;;;;13.13;2.00;;;;;;;20.33;52.47;101157.13;5011198;28;20072;-46
2023/07/04 05:14:45;;;;;;;10.65;2.13;;;;;;;19.98;51.61;101157.88;5010897;28;20481;-44
2023/07/04 05:17:11;;;;;;;6.95;1.90;;;;;;;20.26;50.38;101153.72;5011475;28;20038;-47
2023/07/04 05:19:36;;;;;;;11.63;2.30;;;;;;;20.34;52.34;101166.84;5010515;28;20037;-43
2023/07/04 05:22:02;;;;;;;10.10;2.10;;;;;;;20.02;51.19;101164.84;5011215;28;20121;-46
2023/07/04 05:24:27;;;;;;;8.40;2.08;;;;;;;20.62;50.15;101160.88;5010777;28;20034;-45
2023/07/04 05:26:53;;;;;;;12.98;2.50;;;;;;;21.03;49.75;101154.59;5011234;28;20404;-45
2023/07/04 05:29:18;;;;;;;8.15;2.03;;;;;;;21.06;48.92;101157.13;5010643;28;20121;-45
2023/07/04 05:31:44;;;;;;;12.27;2.20;;;;;;;20.89;50.13;101161.13;5010532;28;20048;-45
2023/07/04 05:34:09;;;;;;;45.30;35.05;;;;;;;20.96;49.94;101162.72;5011490;28;20036;-43
2023/07/04 05:36:37;;;;;;;11.70;4.68;;;;;;;20.72;51.12;101165.97;5011230;28;20041;-46
2023/07/04 05:39:05;;;;;;;11.57;2.58;;;;;;;20.76;51.44;101171.16;5013815;28;20038;-45
2023/07/04 05:41:32;;;;;;;12.32;2.63;;;;;;;20.74;53.43;101174.75;5014408;28;20025;-46
2023/07/04 05:44:02;;;;;;;11.98;3.22;;;;;;;21.17;52.07;101180.75;5014730;28;20493;-49
2023/07/04 05:46:28;;;;;;;12.30;2.30;;;;;;;21.61;50.32;101170.75;5015413;28;20056;-44
2023/07/04 05:48:53;;;;;;;11.95;2.17;;;;;;;21.34;50.68;101173.25;5015498;28;20034;-44
2023/07/04 05:51:19;;;;;;;11.10;2.20;;;;;;;22.21;48.83;101171.69;5012419;28;20208;-47
2023/07/04 05:53:50;;;;;;;9.90;2.25;;;;;;;22.43;45.87;101174.59;5011468;28;20049;-43
2023/07/04 05:56:26;;;;;;;7.88;2.17;;;;;;;22.24;46.66;101181.38;5012033;28;20045;-43
2023/07/04 05:59:00;;;;;;;8.20;2.08;;;;;;;22.24;46.36;101170.75;5011258;28;20045;-43
2023/07/04 06:01:32;;;;;;;13.32;2.22;;;;;;;22.19;48.17;101180.63;5011384;28;20550;-43
2023/07/04 06:03:58;;;;;;;11.07;2.30;;;;;;;22.54;46.26;101177.78;5010518;28;20092;-44
2023/07/04 06:06:32;;;;;;;9.85;2.60;;;;;;;22.55;46.04;101176.88;5009945;28;20049;-43
2023/07/04 06:08:59;;;;;;;10.20;2.35;;;;;;;22.77;46.13;101176.22;5009716;28;20030;-42
2023/07/04 06:11:30;;;;;;;8.43;1.95;;;;;;;23.90;44.30;101179.41;5010035;28;20459;-44
2023/07/04 06:13:56;;;;;;;13.18;2.60;;;;;;;23.55;44.81;101185.13;5010363;28;20037;-47
2023/07/04 06:16:22;;;;;;;10.57;2.40;;;;;;;23.25;44.45;101184.34;5010300;28;20099;-50
2023/07/04 06:18:48;;;;;;;10.45;2.30;;;;;;;23.00;44.79;101189.63;5009344;28;20096;-49
2023/07/04 06:21:16;;;;;;;11.27;2.70;;;;;;;22.07;46.94;101194.28;5010272;28;20033;-43
2023/07/04 06:23:42;;;;;;;10.35;3.20;;;;;;;21.76;48.84;101197.75;5010050;28;20045;-45
2023/07/04 06:26:09;;;;;;;12.80;2.63;;;;;;;21.54;49.11;101193.94;5010112;28;20036;-44
2023/07/04 06:28:36;;;;;;;15.27;2.53;;;;;;;20.98;51.05;101214.75;5009383;28;20026;-46
2023/07/04 06:31:06;;;;;;;13.65;3.13;;;;;;;21.16;51.44;101215.28;5010229;28;20034;-45
2023/07/04 06:33:32;;;;;;;10.75;2.58;;;;;;;20.57;51.27;101217.50;5010078;28;20129;-44
2023/07/04 06:35:58;;;;;;;11.73;2.40;;;;;;;20.70;51.36;101220.75;5011044;28;20037;-44
2023/07/04 06:38:24;;;;;;;9.85;2.40;;;;;;;20.62;52.02;101224.44;5009706;28;20397;-45
2023/07/04 06:41:01;;;;;;;11.35;2.70;;;;;;;20.61;52.50;101228.00;5011499;28;20037;-49
2023/07/04 06:43:29;;;;;;;10.98;2.55;;;;;;;20.94;52.15;101223.72;5011704;28;20030;-46
2023/07/04 06:45:55;;;;;;;11.30;2.35;;;;;;;20.59;53.05;101232.47;5010340;28;20497;-45
2023/07/04 06:48:22;;;;;;;15.63;2.90;;;;;;;20.48;54.31;101228.31;5009483;28;20542;-43
2023/07/04 06:51:05;;;;;;;11.45;2.38;;;;;;;20.71;54.57;101226.03;5009347;28;20022;-46
2023/07/04 06:53:32;;;;;;;9.93;2.50;;;;;;;21.18;52.64;101226.69;5009568;28;20081;-45
2023/07/04 06:56:23;;;;;;;17.55;2.60;;;;;;;21.08;51.33;101230.47;5010024;28;20030;-44
2023/07/04 06:58:53;;;;;;;12.45;2.50;;;;;;;21.30;51.34;101226.41;5005935;28;20038;-48
2023/07/04 07:01:22;;;;;;;9.90;2.60;;;;;;;21.79;48.29;101234.81;5010813;28;20026;-44
2023/07/04 07:03:49;;;;;;;11.15;2.38;;;;;;;21.96;48.32;101237.03;5012776;28;20432;-44
2023/07/04 07:06:14;;;;;;;8.50;2.40;;;;;;;22.22;46.18;101234.53;5013649;28;20113;-43
2023/07/04 07:08:40;;;;;;;10.55;2.28;;;;;;;22.62;45.43;101236.00;5009863;28;20511;-42
2023/07/04 07:11:09;;;;;;;12.05;2.40;;;;;;;22.78;45.26;101233.78;5009504;28;20117;-50
2023/07/04 07:13:35;;;;;;;11.57;2.58;;;;;;;22.88;44.83;101233.44;5010151;28;20084;-44
2023/07/04 07:16:12;;;;;;;8.88;2.42;;;;;;;23.91;42.06;101225.56;5012271;28;20444;-43
2023/07/04 07:18:38;;;;;;;11.38;2.40;;;;;;;23.23;43.75;101234.09;5011236;28;20492;-46
2023/07/04 07:21:07;;;;;;;10.77;2.20;;;;;;;24.06;42.91;101243.63;5011470;28;20377;-45
2023/07/04 07:23:34;;;;;;;11.80;2.40;;;;;;;24.50;41.30;101245.53;5013211;28;20053;-45
2023/07/04 07:26:01;;;;;;;9.30;2.08;;;;;;;25.54;38.04;101247.56;5013494;28;20042;-45
2023/07/04 07:28:28;;;;;;;13.75;2.10;;;;;;;26.70;36.86;101240.56;5012614;28;20412;-47
2023/07/04 07:31:11;;;;;;;10.15;2.30;;;;;;;26.29;36.64;101242.47;5013095;28;20084;-47
2023/07/04 07:33:45;;;;;;;12.00;2.40;;;;;;;25.66;36.81;101236.38;5013116;28;20135;-43
2023/07/04 07:36:31;;;;;;;14.57;2.38;;;;;;;24.84;39.11;101253.09;5013319;28;20068;-47
2023/07/04 07:38:57;;;;;;;9.93;2.25;;;;;;;23.38;41.29;101244.22;5012435;28;20132;-45
2023/07/04 07:41:34;;;;;;;13.38;2.20;;;;;;;23.37;43.13;101250.44;5012469;28;20042;-46
2023/07/04 07:44:00;;;;;;;10.77;2.30;;;;;;;24.34;42.13;101254.16;5013119;28;20064;-50
2023/07/04 07:46:25;;;;;;;14.00;2.30;;;;;;;24.51;40.51;101254.41;5012803;28;20077;-46
2023/07/04 07:48:51;;;;;;;15.40;2.38;;;;;;;24.11;39.28;101245.19;5012602;28;20495;-44
2023/07/04 07:51:18;;;;;;;9.10;1.90;;;;;;;24.35;39.24;101246.09;5011679;28;20033;-45
2023/07/04 07:53:46;;;;;;;10.05;2.42;;;;;;;23.61;41.83;101264.75;5012549;28;20042;-48
2023/07/04 07:56:17;;;;;;;6.82;1.95;;;;;;;23.04;40.73;101266.63;5013211;28;20030;-45
2023/07/04 07:58:43;;;;;;;8.35;2.03;;;;;;;23.61;40.49;101260.28;5012388;28;20040;-45
2023/07/04 08:01:17;;;;;;;6.78;2.08;;;;;;;24.69;39.48;101260.81;5015331;28;20399;-49
2023/07/04 08:03:44;;;;;;;7.20;2.05;;;;;;;24.22;39.25;101258.16;5015275;28;20045;-46
2023/07/04 08:06:20;;;;;;;8.50;2.30;;;;;;;24.77;38.10;101261.38;5012664;28;20044;-45
2023/07/04 08:08:46;;;;;;;9.95;2.13;;;;;;;25.16;37.50;101265.16;5012149;28;20033;-43
2023/07/04 08:11:15;;;;;;;6.57;1.77;;;;;;;24.22;39.83;101259.03;5016020;28;20529;-43
2023/07/04 08:13:41;;;;;;;8.60;2.05;;;;;;;24.12;40.37;101262.91;5014560;28;20037;-48
2023/07/04 08:16:06;;;;;;;8.45;2.08;;;;;;;24.19;40.39;101259.16;5012959;28;20448;-43
2023/07/04 08:18:31;;;;;;;14.35;2.53;;;;;;;24.44;39.13;101261.78;5012400;28;20065;-47
2023/07/04 08:20:58;;;;;;;11.13;2.08;;;;;;;25.37;39.31;101264.28;5014885;28;20088;-49
2023/07/04 08:23:24;;;;;;;11.40;2.28;;;;;;;24.88;38.13;101273.38;5014872;28;20136;-45
2023/07/04 08:25:49;;;;;;;7.97;2.03;;;;;;;24.81;39.74;101271.00;5013000;28;20072;-45
2023/07/04 08:28:15;;;;;;;11.52;2.28;;;;;;;24.15;39.39;101272.59;5011857;28;20042;-46
2023/07/04 08:30:41;;;;;;;14.68;2.30;;;;;;;23.93;39.59;101267.16;5011815;28;20045;-48
2023/07/04 08:33:07;;;;;;;8.77;2.03;;;;;;;23.58;38.92;101268.41;5010958;28;20034;-45
2023/07/04 08:35:32;;;;;;;11.07;2.30;;;;;;;23.57;41.84;101268.44;5011631;28;20042;-44
2023/07/04 08:37:58;;;;;;;11.38;2.45;;;;;;;23.47;40.93;101270.56;5011813;28;20034;-51
2023/07/04 08:40:23;;;;;;;15.82;2.83;;;;;;;23.13;42.26;101273.41;5011503;28;20118;-43
2023/07/04 08:42:48;;;;;;;13.82;2.63;;;;;;;23.20;40.64;101274.09;5012020;28;20041;-46
2023/07/04 08:45:24;;;;;;;6.57;2.17;;;;;;;23.31;40.54;101277.25;5012212;28;20200;-47
2023/07/04 08:47:51;;;;;;;10.15;2.17;;;;;;;22.66;41.73;101281.03;5011196;28;20030;-46
2023/07/04 08:50:28;;;;;;;7.57;2.28;;;;;;;23.06;40.50;101286.03;5011887;28;20405;-48
2023/07/04 08:53:00;;;;;;;8.38;2.30;;;;;;;23.41;40.68;101284.91;5011890;28;20026;-43
2023/07/04 08:55:25;;;;;;;11.52;2.20;;;;;;;23.38;40.10;101281.47;5011749;28;20037;-44
2023/07/04 08:58:01;;;;;;;8.82;2.40;;;;;;;23.45;40.48;101275.91;5011947;28;20029;-43
2023/07/04 09:00:31;;;;;;;10.38;2.42;;;;;;;23.44;40.61;101286.59;5011597;28;20034;-46
2023/07/04 09:03:02;;;;;;;9.73;2.30;;;;;;;23.47;40.69;101283.88;5012303;28;20041;-46
2023/07/04 09:05:44;;;;;;;8.73;1.98;;;;;;;23.79;40.61;101282.75;5011402;28;20041;-47
2023/07/04 09:08:17;;;;;;;14.70;2.50;;;;;;;23.39;40.90;101288.53;5011981;28;20026;-46
2023/07/04 09:10:49;;;;;;;8.50;2.30;;;;;;;23.41;41.58;101303.53;5011532;28;20507;-45
2023/07/04 09:13:27;;;;;;;13.38;2.30;;;;;;;23.96;41.36;101298.16;5012008;28;20036;-44
2023/07/04 09:15:56;;;;;;;9.50;2.20;;;;;;;24.37;38.78;101300.22;5011318;28;20030;-45
2023/07/04 09:18:31;;;;;;;11.25;2.60;;;;;;;25.04;38.35;101297.69;5010368;28;20497;-48
2023/07/04 09:21:10;;;;;;;10.88;2.42;;;;;;;24.59;37.64;101295.81;5011401;28;20033;-47
2023/07/04 09:23:36;;;;;;;13.75;2.50;;;;;;;24.25;36.91;101306.00;5010978;28;20040;-48
2023/07/04 09:26:02;;;;;;;9.75;2.53;;;;;;;24.06;38.79;101308.44;5011631;28;20038;-46
2023/07/04 09:28:28;;;;;;;7.03;2.08;;;;;;;23.75;40.50;101311.28;5010423;28;20061;-50
2023/07/04 09:30:56;;;;;;;9.68;2.20;;;;;;;23.70;40.29;101313.25;5011306;28;20138;-44
2023/07/04 09:33:23;;;;;;;8.82;2.42;;;;;;;23.09;40.76;101322.31;5011134;28;20038;-43
2023/07/04 09:35:48;;;;;;;11.23;2.47;;;;;;;23.76;39.39;101312.16;5011590;28;20120;-45
2023/07/04 09:38:14;;;;;;;10.32;2.17;;;;;;;23.84;39.52;101313.66;5010550;28;20057;-49
2023/07/04 09:40:46;;;;;;;8.75;2.10;;;;;;;24.63;38.58;101312.59;5010831;28;20038;-45
2023/07/04 09:43:23;;;;;;;11.38;2.33;;;;;;;24.64;37.75;101323.19;5011386;28;20037;-45
2023/07/04 09:45:49;;;;;;;9.70;2.40;;;;;;;24.63;38.77;101325.91;5011792;28;20026;-45
2023/07/04 09:48:23;;;;;;;8.93;2.03;;;;;;;24.39;40.15;101329.50;5010984;28;20511;-46
2023/07/04 09:50:48;;;;;;;13.55;2.38;;;;;;;24.44;39.28;101327.53;5011199;28;20046;-45
2023/07/04 09:53:18;;;;;;;8.20;2.05;;;;;;;24.38;38.17;101330.41;5011813;28;20041;-45
2023/07/04 09:56:01;;;;;;;8.73;2.05;;;;;;;24.50;39.50;101346.84;5010289;28;20147;-46
2023/07/04 09:58:28;;;;;;;9.45;2.20;;;;;;;23.42;40.91;101347.81;5010135;28;20085;-46
2023/07/04 10:01:18;;;;;;;12.82;2.40;;;;;;;23.90;40.80;101341.84;5010920;28;20090;-46
2023/07/04 10:03:49;;;;;;;9.13;1.92;;;;;;;24.23;40.04;101346.03;5010336;28;20030;-47
2023/07/04 10:06:30;;;;;;;11.95;2.63;;;;;;;24.06;41.64;101351.03;5010820;28;20030;-44
2023/07/04 10:08:57;;;;;;;10.95;2.45;;;;;;;23.98;40.17;101350.44;5010327;28;20030;-43
2023/07/04 10:11:32;;;;;;;10.48;2.40;;;;;;;23.13;40.82;101371.81;5010778;28;20443;-51
2023/07/04 10:14:08;;;;;;;10.75;2.25;;;;;;;23.45;39.04;101360.19;5011867;28;20030;-42
2023/07/04 10:16:35;;;;;;;7.18;2.10;;;;;;;23.55;39.31;101352.78;5012181;28;20783;-46
2023/07/04 10:19:12;;;;;;;10.55;2.25;;;;;;;23.25;39.20;101357.25;5012693;28;20045;-49
2023/07/04 10:21:46;;;;;;;7.63;2.15;;;;;;;23.37;39.70;101356.88;5013247;28;20048;-44
2023/07/04 10:24:25;;;;;;;7.82;2.15;;;;;;;23.40;39.36;101359.47;5012351;28;20116;-46
2023/07/04 10:26:56;;;;;;;9.88;2.45;;;;;;;23.51;39.86;101356.47;5011010;28;20053;-49
2023/07/04 10:29:31;;;;;;;10.80;2.50;;;;;;;23.29;40.00;101354.47;5009878;28;20126;-44
2023/07/04 10:32:01;;;;;;;9.13;2.10;;;;;;;23.51;40.48;101351.16;5009835;28;20046;-49
2023/07/04 10:34:27;;;;;;;11.38;2.20;;;;;;;;;;5009554;28;20108;-50
2023/07/04 10:36:53;;;;;;;6.78;2.13;;;;;;;24.04;38.15;101350.22;5010038;28;20116;-46
2023/07/04 10:39:19;;;;;;;8.77;2.20;;;;;;;24.46;36.70;101349.66;5009471;28;20046;-49
2023/07/04 10:41:51;;;;;;;9.32;2.50;;;;;;;24.24;36.77;101350.44;5007635;28;20516;-48
2023/07/04 10:44:21;;;;;;;9.23;2.28;;;;;;;23.91;37.57;101354.22;5009956;28;20510;-46
2023/07/04 10:46:57;;;;;;;7.78;2.40;;;;;;;23.65;39.12;101355.13;5009461;28;20069;-51
2023/07/04 10:49:26;;;;;;;9.02;2.35;;;;;;;24.08;38.33;101351.00;5009057;28;20080;-45
2023/07/04 10:52:00;;;;;;;10.82;2.83;;;;;;;24.29;38.68;101342.25;5009813;28;20042;-47
2023/07/04 10:54:25;;;;;;;8.98;2.38;;;;;;;24.27;38.13;101348.59;5009568;28;20518;-43
2023/07/04 10:56:55;;;;;;;9.95;2.70;;;;;;;24.06;39.16;101342.19;5007165;28;20120;-47
2023/07/04 10:59:32;;;;;;;9.48;2.97;;;;;;;24.50;37.36;101341.50;5009243;28;20038;-51
2023/07/04 11:02:12;;;;;;;9.23;2.70;;;;;;;25.04;38.16;101351.03;5009456;28;20034;-45
2023/07/04 11:04:39;;;;;;;7.85;2.08;;;;;;;25.34;35.13;101355.16;5009241;28;20037;-48
2023/07/04 11:07:25;;;;;;;7.15;1.88;;;;;;;25.36;35.67;101350.63;5009874;28;20057;-49
2023/07/04 11:10:02;;;;;;;9.40;2.47;;;;;;;24.23;37.09;101362.00;5009347;28;20030;-48
2023/07/04 11:12:29;;;;;;;9.82;2.50;;;;;;;24.37;36.84;101350.88;5009504;28;20042;-45
2023/07/04 11:15:04;;;;;;;11.48;3.75;;;;;;;25.07;35.83;101366.06;5009913;28;20034;-45
2023/07/04 11:17:34;;;;;;;6.15;1.60;;;;;;;25.21;34.74;101361.91;5007541;28;20042;-48
2023/07/04 11:20:12;;;;;;;5.05;1.70;;;;;;;25.56;35.58;101370.28;5009692;28;20093;-47
2023/07/04 11:22:47;;;;;;;4.70;1.80;;;;;;;25.68;34.01;101354.66;5009258;28;20034;-48
2023/07/04 11:25:44;;;;;;;5.90;1.70;;;;;;;25.76;34.33;101349.88;5009262;28;20033;-46
2023/07/04 11:28:41;;;;;;;6.32;2.30;;;;;;;25.93;34.74;101351.84;4996881;28;20066;-45
2023/07/04 11:31:16;;;;;;;8.75;2.10;;;;;;;25.36;34.81;101357.78;5009777;28;20489;-48